Time;durP1;ratioP1;P1;durP2;ratioP2;P2;SDS_P1;SDS_P2;PMS_P1;PMS_P2;Temp;Humidity;BMP_temperature;BMP_pressure;BME280_temperature;BME280_humidity;BME280_pressure;Samples;Min_cycle;Max_cycle;Signal;HPM_P1;HPM_P2
2023/01/26 00:02:05;;;;;;;116.27;38.80;;;0.30;99.90;;;;;;5021752;28;20473;-78
2023/01/26 00:04:31;;;;;;;110.77;40.00;;;0.40;99.90;;;;;;5054615;28;20055;-78
2023/01/26 00:06:56;;;;;;;111.27;39.07;;;0.30;99.90;;;;;;5037635;28;20437;-78
2023/01/26 00:09:22;;;;;;;110.97;37.90;;;0.30;99.90;;;;;;5038120;28;20028;-78
2023/01/26 00:11:47;;;;;;;107.27;39.33;;;0.30;99.90;;;;;;5037723;28;20064;-78
2023/01/26 00:14:13;;;;;;;114.67;40.23;;;0.40;99.90;;;;;;5037524;28;20492;-78
2023/01/26 00:16:39;;;;;;;106.83;39.20;;;0.30;99.90;;;;;;5038111;28;20075;-78
2023/01/26 00:19:04;;;;;;;114.90;40.07;;;0.30;99.90;;;;;;5037449;28;20025;-78
2023/01/26 00:21:30;;;;;;;108.87;40.03;;;0.30;99.90;;;;;;5054508;28;20389;-77
2023/01/26 00:23:57;;;;;;;112.10;38.73;;;0.30;99.90;;;;;;5055527;28;20039;-78
2023/01/26 00:26:24;;;;;;;110.63;38.80;;;0.30;99.90;;;;;;5053962;28;20044;-80
2023/01/26 00:28:51;;;;;;;103.57;38.87;;;0.50;99.90;;;;;;5055420;28;20029;-78
2023/01/26 00:31:23;;;;;;;102.67;38.17;;;0.30;99.90;;;;;;5054331;28;20180;-78
2023/01/26 00:33:50;;;;;;;105.20;37.70;;;0.30;99.90;;;;;;5054366;28;20033;-78
2023/01/26 00:36:16;;;;;;;103.83;35.73;;;0.40;99.90;;;;;;5053661;28;20021;-79
2023/01/26 00:38:42;;;;;;;110.47;37.40;;;0.40;99.90;;;;;;5055339;28;20036;-79
2023/01/26 00:41:08;;;;;;;100.20;38.97;;;0.40;99.90;;;;;;5037060;28;20437;-78
2023/01/26 00:43:34;;;;;;;101.50;36.70;;;0.50;99.90;;;;;;5054264;28;20025;-79
2023/01/26 00:45:59;;;;;;;102.47;35.70;;;0.40;99.90;;;;;;5053850;28;20623;-78
2023/01/26 00:48:25;;;;;;;106.13;36.87;;;0.40;99.90;;;;;;5053810;28;20029;-79
2023/01/26 00:50:52;;;;;;;105.47;36.87;;;0.40;99.90;;;;;;5020003;28;20029;-78
2023/01/26 00:53:17;;;;;;;102.57;35.57;;;0.40;99.90;;;;;;5036760;28;20489;-79
2023/01/26 00:55:43;;;;;;;108.13;38.60;;;0.50;99.90;;;;;;5037160;28;20032;-79
2023/01/26 00:58:09;;;;;;;113.77;39.10;;;0.50;99.90;;;;;;5053603;28;20108;-79
2023/01/26 01:00:37;;;;;;;104.53;37.20;;;0.40;99.90;;;;;;5037231;28;20120;-80
2023/01/26 01:03:04;;;;;;;99.20;36.10;;;0.40;99.90;;;;;;5055831;28;20021;-80
2023/01/26 01:05:32;;;;;;;106.87;36.63;;;0.40;99.90;;;;;;5054270;28;20473;-80
2023/01/26 01:07:57;;;;;;;97.40;34.17;;;0.40;99.90;;;;;;5053643;28;20056;-79
2023/01/26 01:10:25;;;;;;;92.40;33.90;;;0.50;99.90;;;;;;5054920;28;20062;-79
2023/01/26 01:12:51;;;;;;;96.27;34.47;;;0.50;99.90;;;;;;5053561;28;20079;-79
2023/01/26 01:15:17;;;;;;;95.90;34.37;;;0.50;99.90;;;;;;5020550;28;20029;-80
2023/01/26 01:17:42;;;;;;;97.30;32.70;;;0.50;99.90;;;;;;5036881;28;20104;-79
2023/01/26 01:20:09;;;;;;;99.50;33.87;;;0.60;99.90;;;;;;5053388;28;20033;-78
2023/01/26 01:22:35;;;;;;;92.73;33.53;;;0.60;99.90;;;;;;5036944;28;20025;-79
2023/01/26 01:25:01;;;;;;;95.90;34.77;;;0.60;99.90;;;;;;5036513;28;20079;-79
2023/01/26 01:27:27;;;;;;;87.17;31.63;;;0.60;99.90;;;;;;5036341;28;20064;-78
2023/01/26 01:29:53;;;;;;;98.47;36.17;;;0.60;99.90;;;;;;5052709;28;20033;-78
2023/01/26 01:32:19;;;;;;;92.17;34.17;;;0.70;99.90;;;;;;5053287;28;20057;-78
2023/01/26 01:34:48;;;;;;;91.63;33.43;;;0.60;99.90;;;;;;5035967;28;20114;-78
2023/01/26 01:37:15;;;;;;;91.00;34.27;;;0.50;99.90;;;;;;5052698;28;20024;-78
2023/01/26 01:39:41;;;;;;;87.97;31.27;;;0.60;99.90;;;;;;5054136;28;20017;-78
2023/01/26 01:42:06;;;;;;;92.33;33.20;;;0.60;99.90;;;;;;5053083;28;20124;-78
2023/01/26 01:44:36;;;;;;;89.97;32.73;;;0.50;99.90;;;;;;5036070;28;20033;-79
2023/01/26 01:47:09;;;;;;;90.40;33.80;;;0.60;99.90;;;;;;5052821;28;20107;-79
2023/01/26 01:49:50;;;;;;;83.97;30.93;;;0.60;99.90;;;;;;5052967;28;20465;-78
2023/01/26 01:52:23;;;;;;;87.43;30.73;;;0.60;99.90;;;;;;5052485;28;20526;-78
2023/01/26 01:54:55;;;;;;;89.10;30.47;;;0.60;99.90;;;;;;5052602;28;20035;-79
2023/01/26 01:57:28;;;;;;;90.93;30.93;;;0.60;99.90;;;;;;5054142;28;20104;-79
2023/01/26 02:00:08;;;;;;;77.47;28.57;;;0.70;99.90;;;;;;5052751;28;20060;-79
2023/01/26 02:02:35;;;;;;;81.80;30.10;;;0.70;99.90;;;;;;5035898;28;20120;-78
2023/01/26 02:05:23;;;;;;;84.40;30.37;;;0.70;99.90;;;;;;5035255;28;20124;-79
2023/01/26 02:07:50;;;;;;;82.10;29.93;;;0.70;99.90;;;;;;5052549;28;20047;-78
2023/01/26 02:10:20;;;;;;;83.60;30.37;;;0.70;99.90;;;;;;5019519;28;20033;-79
2023/01/26 02:12:49;;;;;;;81.20;30.50;;;0.70;99.90;;;;;;5035801;28;20029;-78
2023/01/26 02:15:15;;;;;;;82.20;30.03;;;0.80;99.90;;;;;;5052530;28;20052;-78
2023/01/26 02:17:40;;;;;;;86.57;30.30;;;0.70;99.90;;;;;;5052668;28;20045;-78
2023/01/26 02:20:33;;;;;;;73.70;29.17;;;0.60;99.90;;;;;;5052871;28;20033;-78
2023/01/26 02:23:20;;;;;;;76.43;26.70;;;0.70;99.90;;;;;;5052268;28;20072;-78
2023/01/26 02:25:48;;;;;;;77.33;26.90;;;0.60;99.90;;;;;;5052064;28;20048;-77
2023/01/26 02:28:14;;;;;;;68.10;24.97;;;0.70;99.90;;;;;;5052245;28;20025;-79
2023/01/26 02:30:40;;;;;;;73.60;26.83;;;0.70;99.90;;;;;;5052250;28;20028;-77
2023/01/26 02:33:07;;;;;;;76.97;26.80;;;0.70;99.90;;;;;;5053660;28;20029;-78
2023/01/26 02:35:33;;;;;;;74.47;27.00;;;0.70;99.90;;;;;;5019030;28;20048;-77
2023/01/26 02:37:58;;;;;;;75.80;28.03;;;0.70;99.90;;;;;;5035698;28;20461;-78
2023/01/26 02:40:35;;;;;;;73.30;26.33;;;0.70;99.90;;;;;;5052858;28;20367;-78
2023/01/26 02:43:01;;;;;;;73.07;27.17;;;0.70;99.90;;;;;;5051909;28;20025;-78
2023/01/26 02:45:28;;;;;;;84.83;29.67;;;0.70;99.90;;;;;;5035395;28;20072;-77
2023/01/26 02:47:53;;;;;;;73.70;26.60;;;0.70;99.90;;;;;;5051868;28;20025;-77
2023/01/26 02:50:19;;;;;;;76.83;27.27;;;0.60;99.90;;;;;;5035158;28;20021;-78
2023/01/26 02:52:45;;;;;;;74.27;27.27;;;0.70;99.90;;;;;;5034946;28;20053;-77
2023/01/26 02:55:24;;;;;;;71.17;26.17;;;0.60;99.90;;;;;;5051407;28;20067;-78
2023/01/26 02:58:11;;;;;;;66.80;24.93;;;0.80;99.90;;;;;;5051547;28;20021;-78
2023/01/26 03:00:39;;;;;;;67.80;24.57;;;0.70;99.90;;;;;;5051329;28;20025;-77
2023/01/26 03:03:14;;;;;;;72.13;26.07;;;0.70;99.90;;;;;;5035412;28;20115;-78
2023/01/26 03:05:40;;;;;;;70.93;25.10;;;0.60;99.90;;;;;;5052266;28;20428;-78
2023/01/26 03:08:06;;;;;;;71.23;25.23;;;0.70;99.90;;;;;;5051660;28;20027;-79
2023/01/26 03:10:33;;;;;;;64.10;24.03;;;0.70;99.90;;;;;;5035047;28;20116;-77
2023/01/26 03:12:58;;;;;;;64.33;24.57;;;0.70;99.90;;;;;;5052739;28;20053;-78
2023/01/26 03:15:41;;;;;;;69.87;24.70;;;0.70;99.90;;;;;;5037150;28;20036;-78
2023/01/26 03:29:16;;;;;;;64.95;23.30;;;0.80;99.90;;;;;;5056143;28;20419;-78
2023/01/26 03:31:42;;;;;;;65.27;24.07;;;0.80;99.90;;;;;;5055611;28;20021;-77
2023/01/26 03:34:08;;;;;;;59.70;21.10;;;0.80;99.90;;;;;;5038794;28;20029;-77
2023/01/26 03:36:33;;;;;;;57.70;20.50;;;0.80;99.90;;;;;;5038232;28;20033;-78
2023/01/26 03:38:59;;;;;;;61.67;23.10;;;0.80;99.90;;;;;;5038597;28;20029;-78
2023/01/26 03:57:49;;;;;;;;;;;0.80;99.90;;;;;;5055166;28;20437;-78
2023/01/26 04:00:15;;;;;;;51.73;20.67;;;0.80;99.90;;;;;;5055042;28;19909;-77
2023/01/26 04:08:22;;;;;;;63.03;21.63;;;0.80;99.90;;;;;;5054789;28;20444;-78
2023/01/26 04:10:52;;;;;;;60.20;22.57;;;0.90;99.90;;;;;;5025083;28;20021;-78
2023/01/26 04:21:33;;;;;;;;;;;0.90;99.90;;;;;;5056457;28;20048;-78
2023/01/26 04:24:00;;;;;;;53.93;19.47;;;0.90;99.90;;;;;;5054437;28;19916;-79
2023/01/26 04:26:33;;;;;;;52.17;20.83;;;0.80;99.90;;;;;;5036500;28;20473;-79
2023/01/26 04:29:06;;;;;;;46.55;19.30;;;0.90;99.90;;;;;;5054339;28;20017;-79
2023/01/26 04:31:31;;;;;;;57.97;23.07;;;0.90;99.90;;;;;;5055494;28;20100;-78
2023/01/26 04:33:58;;;;;;;50.37;20.67;;;0.90;99.90;;;;;;5037909;28;20503;-78
2023/01/26 04:36:24;;;;;;;54.23;20.67;;;0.90;99.90;;;;;;5054264;28;20049;-79
2023/01/26 04:38:50;;;;;;;50.23;19.10;;;0.90;99.90;;;;;;5054513;28;20122;-78
2023/01/26 04:41:16;;;;;;;52.63;19.37;;;0.90;99.90;;;;;;5021069;28;20025;-78
2023/01/26 04:43:42;;;;;;;48.83;20.20;;;0.90;99.90;;;;;;5055843;28;20525;-78
2023/01/26 04:46:08;;;;;;;56.40;20.57;;;0.90;99.90;;;;;;5053840;28;20159;-79
2023/01/26 04:48:35;;;;;;;51.87;19.63;;;0.90;99.90;;;;;;5067835;28;20028;-79
2023/01/26 04:51:04;;;;;;;47.17;18.83;;;1.00;99.90;;;;;;5055976;28;20107;-78
2023/01/26 04:53:32;;;;;;;50.63;19.63;;;1.00;99.90;;;;;;5072004;28;20072;-78
2023/01/26 04:55:57;;;;;;;47.67;18.27;;;0.90;99.90;;;;;;5074455;28;20099;-78
2023/01/26 04:58:23;;;;;;;46.60;18.67;;;1.00;99.90;;;;;;5075127;28;20103;-78
2023/01/26 05:00:54;;;;;;;48.37;18.70;;;1.10;99.90;;;;;;5073437;28;20456;-79
2023/01/26 05:03:20;;;;;;;47.00;18.37;;;1.00;99.90;;;;;;5074402;28;20392;-78
2023/01/26 05:05:49;;;;;;;47.37;18.20;;;1.00;99.90;;;;;;5056687;28;20473;-78
2023/01/26 05:08:15;;;;;;;52.10;19.67;;;1.00;99.90;;;;;;5073503;28;20035;-78
2023/01/26 05:10:41;;;;;;;47.33;18.30;;;1.10;99.90;;;;;;5073515;28;20024;-78
2023/01/26 05:13:07;;;;;;;48.63;18.27;;;1.10;99.90;;;;;;5073665;28;20543;-79
2023/01/26 05:15:33;;;;;;;47.97;18.47;;;1.10;99.90;;;;;;5073244;28;20473;-79
2023/01/26 05:17:59;;;;;;;49.37;17.73;;;1.10;99.90;;;;;;5074640;28;20021;-78
2023/01/26 05:20:25;;;;;;;43.03;17.73;;;1.10;99.90;;;;;;5073211;28;20433;-78
2023/01/26 05:22:51;;;;;;;54.03;20.13;;;1.10;99.90;;;;;;5073541;28;20029;-78
2023/01/26 05:25:17;;;;;;;50.23;20.50;;;1.10;99.90;;;;;;5056997;28;20051;-78
2023/01/26 05:27:43;;;;;;;49.03;19.57;;;1.10;99.90;;;;;;5045297;28;20115;-77
2023/01/26 05:30:10;;;;;;;48.53;17.47;;;1.20;99.90;;;;;;5038934;28;20546;-78
2023/01/26 05:32:35;;;;;;;43.83;17.97;;;1.20;99.90;;;;;;5059121;28;20082;-78
2023/01/26 05:35:02;;;;;;;44.80;18.17;;;1.30;99.90;;;;;;5063824;28;20029;-78
2023/01/26 05:37:28;;;;;;;49.20;18.17;;;1.20;99.90;;;;;;5060467;28;20083;-78
2023/01/26 05:39:54;;;;;;;42.90;16.50;;;1.20;99.90;;;;;;5016299;28;20032;-79
2023/01/26 05:42:20;;;;;;;46.90;17.00;;;1.20;99.90;;;;;;5048521;28;20056;-78
2023/01/26 05:44:46;;;;;;;41.33;16.20;;;1.20;99.90;;;;;;5033661;28;20025;-78
2023/01/26 05:47:12;;;;;;;44.53;16.57;;;1.20;99.90;;;;;;5049491;28;20033;-77
2023/01/26 05:49:41;;;;;;;43.23;18.03;;;1.20;99.90;;;;;;5016280;28;20040;-78
2023/01/26 05:52:18;;;;;;;51.03;17.80;;;1.20;99.90;;;;;;5049505;28;20032;-77
2023/01/26 05:54:44;;;;;;;39.93;14.17;;;1.20;99.90;;;;;;5049470;28;20413;-77
2023/01/26 05:57:10;;;;;;;46.33;16.80;;;1.20;99.90;;;;;;5049104;28;20025;-78
2023/01/26 05:59:36;;;;;;;47.00;17.63;;;1.30;99.90;;;;;;5048933;28;20080;-78
2023/01/26 06:02:02;;;;;;;44.13;16.70;;;1.30;99.90;;;;;;5032931;28;20026;-77
2023/01/26 06:04:28;;;;;;;43.83;16.37;;;1.30;99.90;;;;;;5049053;28;20025;-78
2023/01/26 06:06:59;;;;;;;47.17;18.37;;;1.20;99.90;;;;;;5031846;28;20029;-78
2023/01/26 06:09:24;;;;;;;41.43;17.67;;;1.20;99.90;;;;;;5049319;28;20393;-77
2023/01/26 06:11:50;;;;;;;50.87;18.43;;;1.30;99.90;;;;;;5032775;28;20029;-77
2023/01/26 06:14:16;;;;;;;43.90;16.77;;;1.30;99.90;;;;;;5032593;28;20082;-78
2023/01/26 06:16:41;;;;;;;48.03;19.17;;;1.30;99.90;;;;;;5032089;28;20042;-77
2023/01/26 06:19:08;;;;;;;48.83;18.77;;;1.30;99.90;;;;;;5051594;28;20025;-78
2023/01/26 06:21:34;;;;;;;47.47;18.03;;;1.30;99.90;;;;;;5029911;28;20040;-80
2023/01/26 06:24:00;;;;;;;50.50;16.93;;;1.30;99.90;;;;;;5040530;28;20083;-76
2023/01/26 06:26:25;;;;;;;49.70;18.70;;;1.40;99.90;;;;;;5029771;28;20147;-76
2023/01/26 06:28:52;;;;;;;49.60;17.50;;;1.40;99.90;;;;;;5035813;28;20381;-77
2023/01/26 06:31:19;;;;;;;45.73;17.43;;;1.40;99.90;;;;;;5048743;28;20453;-77
2023/01/26 06:33:45;;;;;;;54.77;19.60;;;1.40;99.90;;;;;;5042324;28;20032;-77
2023/01/26 06:36:13;;;;;;;51.43;20.03;;;1.40;99.90;;;;;;5023666;28;20034;-76
2023/01/26 06:38:45;;;;;;;54.53;20.97;;;1.40;99.90;;;;;;5039981;28;20025;-77
2023/01/26 06:41:10;;;;;;;48.07;18.63;;;1.50;99.90;;;;;;5039492;28;20028;-77
2023/01/26 06:43:36;;;;;;;50.73;18.40;;;1.50;99.90;;;;;;5026001;28;20017;-78
2023/01/26 06:46:03;;;;;;;53.93;20.70;;;1.40;99.90;;;;;;5041123;28;20037;-77
2023/01/26 06:48:31;;;;;;;56.27;22.10;;;1.50;99.90;;;;;;5040551;28;20021;-77
2023/01/26 06:51:15;;;;;;;53.70;20.63;;;1.50;99.90;;;;;;5041966;28;20529;-77
2023/01/26 06:53:46;;;;;;;49.30;19.20;;;1.50;99.90;;;;;;5031424;28;20052;-77
2023/01/26 06:56:12;;;;;;;55.23;20.87;;;1.50;99.90;;;;;;5036666;28;20032;-77
2023/01/26 06:58:37;;;;;;;52.97;18.77;;;1.50;99.90;;;;;;5031044;28;20025;-77
2023/01/26 07:01:03;;;;;;;50.27;18.97;;;1.50;99.90;;;;;;5034636;28;20021;-77
2023/01/26 07:03:29;;;;;;;55.37;20.37;;;1.50;99.90;;;;;;5035130;28;20053;-77
2023/01/26 07:05:55;;;;;;;56.87;20.87;;;1.50;99.90;;;;;;5039855;28;20342;-78
2023/01/26 07:08:21;;;;;;;51.90;20.27;;;1.60;99.90;;;;;;5025566;28;20045;-77
2023/01/26 07:10:47;;;;;;;57.07;21.33;;;1.60;99.90;;;;;;5051605;28;20022;-76
2023/01/26 07:13:13;;;;;;;52.07;19.77;;;1.60;99.90;;;;;;5050824;28;20059;-76
2023/01/26 07:15:39;;;;;;;56.13;19.53;;;1.50;99.90;;;;;;5049960;28;20064;-77
2023/01/26 07:18:04;;;;;;;52.17;19.03;;;1.60;99.90;;;;;;5042579;28;20055;-78
2023/01/26 07:20:30;;;;;;;54.60;20.43;;;1.60;99.90;;;;;;5051351;28;20035;-78
2023/01/26 07:22:59;;;;;;;57.07;20.93;;;1.60;99.90;;;;;;5046185;28;20026;-76
2023/01/26 07:25:25;;;;;;;48.23;20.00;;;1.70;99.90;;;;;;5030623;28;20131;-81
2023/01/26 07:27:58;;;;;;;54.70;20.17;;;1.60;99.90;;;;;;5033680;28;20112;-76
2023/01/26 07:30:24;;;;;;;55.63;20.47;;;1.70;99.90;;;;;;5051410;28;20107;-78
2023/01/26 07:32:50;;;;;;;53.20;20.50;;;1.70;99.90;;;;;;5051395;28;20032;-77
2023/01/26 07:35:16;;;;;;;54.80;19.33;;;1.70;99.90;;;;;;5051140;28;20374;-77
2023/01/26 07:37:41;;;;;;;56.40;19.60;;;1.70;99.90;;;;;;5035387;28;20028;-76
2023/01/26 07:40:09;;;;;;;47.53;18.27;;;1.70;99.90;;;;;;5048601;28;20082;-78
2023/01/26 07:42:35;;;;;;;50.47;19.27;;;1.80;99.90;;;;;;5041359;28;20078;-78
2023/01/26 07:45:01;;;;;;;42.87;17.13;;;1.80;99.90;;;;;;5049375;28;20044;-77
2023/01/26 07:47:26;;;;;;;44.80;18.37;;;1.80;99.90;;;;;;5051239;28;20029;-76
2023/01/26 07:49:52;;;;;;;43.87;17.10;;;1.80;99.90;;;;;;5050584;28;20032;-77
2023/01/26 07:52:18;;;;;;;50.47;19.07;;;1.80;99.90;;;;;;5034146;28;20033;-76
2023/01/26 07:54:43;;;;;;;43.17;17.27;;;1.80;99.90;;;;;;5034498;28;20061;-79
2023/01/26 07:57:11;;;;;;;43.93;16.53;;;1.80;99.90;;;;;;5046823;28;20398;-79
2023/01/26 07:59:36;;;;;;;50.17;17.60;;;1.80;99.90;;;;;;5032050;28;20037;-80
2023/01/26 08:02:02;;;;;;;41.07;16.57;;;1.80;99.90;;;;;;5042054;28;20026;-78
2023/01/26 08:04:28;;;;;;;44.13;16.47;;;1.80;99.90;;;;;;5035387;28;20489;-76
2023/01/26 08:06:53;;;;;;;55.10;18.47;;;1.80;99.90;;;;;;5033497;28;20140;-76
2023/01/26 08:09:19;;;;;;;47.23;17.70;;;1.80;99.90;;;;;;5034514;28;20071;-78
2023/01/26 08:11:45;;;;;;;44.90;17.03;;;1.80;99.90;;;;;;5015549;28;20163;-78
2023/01/26 08:14:10;;;;;;;50.87;17.97;;;1.80;99.90;;;;;;5018268;28;20029;-79
2023/01/26 08:16:36;;;;;;;50.93;18.83;;;1.80;99.90;;;;;;5034765;28;20127;-78
2023/01/26 08:19:02;;;;;;;46.00;17.80;;;1.90;99.90;;;;;;5034839;28;20049;-78
2023/01/26 08:21:28;;;;;;;53.67;17.33;;;1.90;99.90;;;;;;5034537;28;20052;-78
2023/01/26 08:23:54;;;;;;;51.50;18.33;;;1.90;99.90;;;;;;5018408;28;20478;-79
2023/01/26 08:26:20;;;;;;;39.80;16.17;;;1.90;99.90;;;;;;5017176;28;20064;-78
2023/01/26 08:28:47;;;;;;;43.00;16.07;;;2.00;99.90;;;;;;5035727;28;20032;-79
2023/01/26 08:31:18;;;;;;;45.07;17.70;;;2.00;99.90;;;;;;5035618;28;20084;-78
2023/01/26 08:33:45;;;;;;;52.00;17.17;;;2.00;99.90;;;;;;5035776;28;20028;-79
2023/01/26 08:36:12;;;;;;;49.57;17.93;;;2.00;99.90;;;;;;5035328;28;20132;-78
2023/01/26 08:38:39;;;;;;;47.27;17.03;;;2.10;99.90;;;;;;5034529;28;20037;-79
2023/01/26 08:41:06;;;;;;;45.13;16.47;;;2.10;99.90;;;;;;5018019;28;20124;-79
2023/01/26 08:43:31;;;;;;;51.80;18.70;;;2.10;99.90;;;;;;5033989;28;20075;-78
2023/01/26 08:45:57;;;;;;;46.97;18.57;;;2.10;99.90;;;;;;5035047;28;20037;-78
2023/01/26 08:48:23;;;;;;;51.90;16.90;;;2.10;99.90;;;;;;5017959;28;20030;-78
2023/01/26 08:50:56;;;;;;;47.03;17.73;;;2.20;99.90;;;;;;5033831;28;20510;-79
2023/01/26 08:53:22;;;;;;;47.10;16.27;;;2.20;99.90;;;;;;5017832;28;20440;-78
2023/01/26 08:55:48;;;;;;;54.90;18.93;;;2.20;99.90;;;;;;5033272;28;20072;-79
2023/01/26 08:58:14;;;;;;;49.33;17.93;;;2.30;99.90;;;;;;5017656;28;20481;-78
2023/01/26 09:00:39;;;;;;;42.97;16.03;;;2.40;99.90;;;;;;5035030;28;20075;-79
2023/01/26 09:03:06;;;;;;;50.77;17.23;;;2.40;99.90;;;;;;5017179;28;20404;-78
2023/01/26 09:05:35;;;;;;;47.47;17.60;;;2.40;99.90;;;;;;5033307;28;20091;-78
2023/01/26 09:08:02;;;;;;;48.77;17.20;;;2.50;99.90;;;;;;5033855;28;20026;-79
2023/01/26 09:10:28;;;;;;;45.97;17.40;;;2.50;99.90;;;;;;5034403;28;20397;-79
2023/01/26 09:12:53;;;;;;;47.73;16.73;;;2.70;99.90;;;;;;5033588;28;20494;-80
2023/01/26 09:15:19;;;;;;;46.23;17.07;;;2.60;99.90;;;;;;5033461;28;20033;-79
2023/01/26 09:17:48;;;;;;;50.60;19.20;;;2.60;99.90;;;;;;5033600;28;20033;-79
2023/01/26 09:20:13;;;;;;;53.70;17.87;;;2.60;99.90;;;;;;5034883;28;20029;-79
2023/01/26 09:22:39;;;;;;;54.53;19.07;;;2.60;99.90;;;;;;5016758;28;20029;-79
2023/01/26 09:25:06;;;;;;;50.97;18.53;;;2.70;99.90;;;;;;5034571;28;20034;-79
2023/01/26 09:27:31;;;;;;;50.40;18.77;;;2.70;99.90;;;;;;5032949;28;20091;-79
2023/01/26 09:29:58;;;;;;;50.67;19.70;;;2.70;99.90;;;;;;5016817;28;20030;-79
2023/01/26 09:32:24;;;;;;;53.93;19.70;;;2.70;99.90;;;;;;5017324;28;20127;-79
2023/01/26 09:34:49;;;;;;;63.27;19.50;;;2.80;99.90;;;;;;5033331;28;20196;-79
2023/01/26 09:37:16;;;;;;;58.50;19.40;;;2.80;99.90;;;;;;5032960;28;20036;-79
2023/01/26 09:39:42;;;;;;;65.13;19.17;;;2.80;99.90;;;;;;5033088;28;20075;-78
2023/01/26 09:42:20;;;;;;;58.43;19.60;;;2.80;99.90;;;;;;5016665;28;20030;-79
2023/01/26 09:44:59;;;;;;;53.70;19.07;;;2.80;99.90;;;;;;5034827;28;20104;-80
2023/01/26 09:48:02;;;;;;;57.93;18.83;;;2.90;99.90;;;;;;5033117;28;20163;-79
2023/01/26 09:50:43;;;;;;;57.93;18.60;;;2.90;99.90;;;;;;5032751;28;20030;-79
2023/01/26 09:53:21;;;;;;;59.33;19.90;;;2.80;99.90;;;;;;5033206;28;20079;-79
2023/01/26 09:55:48;;;;;;;59.77;19.87;;;2.90;99.90;;;;;;5034356;28;20050;-79
2023/01/26 09:58:21;;;;;;;53.53;19.03;;;2.90;99.90;;;;;;5032388;28;20029;-79
2023/01/26 10:00:51;;;;;;;47.40;16.40;;;3.00;99.90;;;;;;5033739;28;20531;-79
2023/01/26 10:03:30;;;;;;;56.53;18.00;;;3.00;99.90;;;;;;5032857;28;20117;-80
2023/01/26 10:06:01;;;;;;;57.50;18.83;;;3.10;99.90;;;;;;5032242;28;20375;-79
2023/01/26 10:08:27;;;;;;;54.57;18.33;;;3.10;99.90;;;;;;5032429;28;20057;-79
2023/01/26 10:11:06;;;;;;;58.40;18.53;;;3.20;99.90;;;;;;5016079;28;20068;-79
2023/01/26 10:13:33;;;;;;;50.87;16.47;;;3.30;99.90;;;;;;5033485;28;20021;-79
2023/01/26 10:16:05;;;;;;;44.03;15.30;;;3.30;99.90;;;;;;5032649;28;20045;-79
2023/01/26 10:18:36;;;;;;;46.73;15.37;;;3.30;99.90;;;;;;5033451;28;20115;-79
2023/01/26 10:21:04;;;;;;;52.47;15.53;;;3.40;99.90;;;;;;5032100;28;20022;-79
2023/01/26 10:23:33;;;;;;;40.27;14.87;;;3.50;99.90;;;;;;5032017;28;20022;-79
2023/01/26 10:26:19;;;;;;;42.23;13.27;;;3.50;99.90;;;;;;5032304;28;20072;-79
2023/01/26 10:28:48;;;;;;;44.13;13.80;;;3.60;99.90;;;;;;5033477;28;20022;-79
2023/01/26 10:31:22;;;;;;;46.67;14.33;;;3.60;99.90;;;;;;5033377;28;20029;-78
2023/01/26 10:33:56;;;;;;;38.25;12.90;;;3.70;99.90;;;;;;5032574;28;20355;-78
2023/01/26 10:36:22;;;;;;;34.97;13.47;;;3.80;99.90;;;;;;5042734;28;20025;-79
2023/01/26 10:38:50;;;;;;;42.40;13.70;;;3.90;99.90;;;;;;5019030;28;20517;-78
2023/01/26 10:41:18;;;;;;;32.50;13.27;;;4.00;99.90;;;;;;5051928;28;20033;-78
2023/01/26 10:43:53;;;;;;;34.30;13.23;;;4.00;99.90;;;;;;5052166;28;20032;-78
2023/01/26 10:46:29;;;;;;;33.37;13.07;;;4.20;99.90;;;;;;5052337;28;20040;-79
2023/01/26 10:48:58;;;;;;;38.97;13.70;;;4.30;99.90;;;;;;5051801;28;20033;-79
2023/01/26 10:51:33;;;;;;;31.73;12.47;;;4.40;99.90;;;;;;5052108;28;20087;-79
2023/01/26 10:54:16;;;;;;;37.40;13.33;;;4.50;99.90;;;;;;5051683;28;20480;-79
2023/01/26 10:56:51;;;;;;;31.15;12.95;;;4.60;99.90;;;;;;5053082;28;20568;-79
2023/01/26 11:00:07;;;;;;;30.00;12.80;;;4.70;99.90;;;;;;5053364;28;20079;-79
2023/01/26 11:02:35;;;;;;;31.97;12.13;;;4.80;99.90;;;;;;5051699;28;20396;-79
2023/01/26 11:05:18;;;;;;;29.57;11.47;;;5.00;99.90;;;;;;5051384;28;20543;-79
2023/01/26 11:07:46;;;;;;;28.57;12.40;;;5.10;99.90;;;;;;5051511;28;20025;-79
2023/01/26 11:10:35;;;;;;;24.17;11.43;;;5.20;99.90;;;;;;5051576;28;20416;-79
2023/01/26 11:13:19;;;;;;;24.53;9.67;;;5.50;99.90;;;;;;5051715;28;20029;-79
2023/01/26 11:15:47;;;;;;;26.33;10.90;;;5.60;99.90;;;;;;5051728;28;20112;-79
2023/01/26 11:18:21;;;;;;;25.07;9.37;;;5.80;99.90;;;;;;5051453;28;20437;-79
2023/01/26 11:20:56;;;;;;;26.37;10.20;;;5.90;99.90;;;;;;5053362;28;20103;-79
2023/01/26 11:23:48;;;;;;;27.87;9.83;;;6.10;99.90;;;;;;5051657;28;20021;-77
2023/01/26 11:26:16;;;;;;;24.83;9.20;;;6.40;99.90;;;;;;5051742;28;20374;-79
2023/01/26 11:28:44;;;;;;;22.47;9.47;;;6.60;99.90;;;;;;5051341;28;20496;-78
2023/01/26 11:31:30;;;;;;;20.07;8.90;;;6.90;99.90;;;;;;5051283;28;20064;-78
2023/01/26 11:33:58;;;;;;;19.97;8.20;;;7.40;99.90;;;;;;5052914;28;20028;-78
2023/01/26 11:36:37;;;;;;;19.63;7.05;;;7.90;99.90;;;;;;5054665;28;20029;-78
2023/01/26 11:39:02;;;;;;;15.55;7.07;;;8.60;99.90;;;;;;5056869;28;20033;-77
2023/01/26 11:41:43;;;;;;;22.48;6.97;;;9.30;99.90;;;;;;5056501;28;20522;-78
2023/01/26 11:44:16;;;;;;;16.58;6.22;;;9.80;99.90;;;;;;5056293;28;20028;-77
2023/01/26 11:47:10;;;;;;;17.40;6.80;;;10.50;99.90;;;;;;5055277;28;20072;-78
2023/01/26 11:49:46;;;;;;;15.18;6.20;;;11.00;99.90;;;;;;5055279;28;20584;-78
2023/01/26 11:52:36;;;;;;;15.23;6.10;;;11.40;99.90;;;;;;5055049;28;20029;-78
2023/01/26 11:55:25;;;;;;;11.73;5.50;;;11.80;99.90;;;;;;5054489;28;20164;-78
2023/01/26 11:58:04;;;;;;;15.20;6.00;;;12.20;99.90;;;;;;5056529;28;20021;-78
2023/01/26 12:00:41;;;;;;;15.55;6.38;;;12.60;99.90;;;;;;5056268;28;20017;-78
2023/01/26 12:03:24;;;;;;;17.10;6.03;;;13.00;99.90;;;;;;5055034;28;20488;-78
2023/01/26 12:05:59;;;;;;;14.80;5.80;;;13.40;99.90;;;;;;5055936;28;20036;-78
2023/01/26 12:08:26;;;;;;;17.15;6.25;;;13.80;99.90;;;;;;5055657;28;20048;-78
2023/01/26 12:11:24;;;;;;;13.18;4.45;;;14.30;99.90;;;;;;5055831;28;20457;-78
2023/01/26 12:14:05;;;;;;;12.27;4.78;;;14.70;99.90;;;;;;5054453;28;20469;-78
2023/01/26 12:16:48;;;;;;;15.10;5.30;;;15.10;99.90;;;;;;5054710;28;20025;-78
2023/01/26 12:19:35;;;;;;;14.45;5.13;;;15.50;97.70;;;;;;5056491;28;20112;-78
2023/01/26 12:22:18;;;;;;;11.52;5.25;;;15.90;94.50;;;;;;5055317;28;20021;-78
2023/01/26 12:24:56;;;;;;;15.27;4.40;;;16.30;93.70;;;;;;5055939;28;20052;-78
2023/01/26 12:27:30;;;;;;;12.63;4.68;;;16.60;91.60;;;;;;5054163;28;20053;-78
2023/01/26 12:30:14;;;;;;;;;;;16.70;90.50;;;;;;5055421;28;20021;-78
2023/01/26 12:32:40;;;;;;;13.23;4.03;;;16.80;89.20;;;;;;5055837;28;20349;-78
2023/01/26 12:35:10;;;;;;;13.05;4.07;;;16.80;88.00;;;;;;5037879;28;20039;-78
2023/01/26 12:37:55;;;;;;;12.45;4.18;;;17.00;84.90;;;;;;5054658;28;20021;-78
2023/01/26 12:40:39;;;;;;;14.43;4.25;;;17.10;81.10;;;;;;5056195;28;20028;-78
2023/01/26 12:43:17;;;;;;;13.10;3.85;;;16.80;79.90;;;;;;5054182;28;20049;-78
2023/01/26 12:45:47;;;;;;;13.63;4.07;;;17.00;79.30;;;;;;5054687;28;20409;-78
2023/01/26 12:48:44;;;;;;;10.43;3.60;;;17.40;79.50;;;;;;5053358;28;20031;-78
2023/01/26 12:51:26;;;;;;;12.18;3.80;;;17.80;77.00;;;;;;5056084;28;20028;-78
2023/01/26 12:54:04;;;;;;;11.93;2.90;;;18.20;77.10;;;;;;5054807;28;20036;-78
2023/01/26 12:56:43;;;;;;;12.88;3.30;;;18.70;76.00;;;;;;5073524;28;20442;-78
2023/01/26 12:59:27;;;;;;;14.15;2.70;;;19.10;74.10;;;;;;5069744;28;20025;-78
2023/01/26 13:01:53;;;;;;;;;;;19.20;70.50;;;;;;5052181;28;20037;-79
2023/01/26 13:04:19;;;;;;;12.68;2.88;;;19.30;69.50;;;;;;5052565;28;19912;-78
2023/01/26 13:06:59;;;;;;;13.73;2.97;;;19.30;69.10;;;;;;5051499;28;20033;-78
2023/01/26 13:09:26;;;;;;;10.15;2.05;;;19.00;67.20;;;;;;5053817;28;20025;-78
2023/01/26 13:11:53;;;;;;;12.10;2.67;;;18.80;66.50;;;;;;5053625;28;20098;-77
2023/01/26 13:14:43;;;;;;;12.15;2.17;;;18.80;66.00;;;;;;5053091;28;20024;-78
2023/01/26 13:17:15;;;;;;;13.63;2.90;;;19.10;65.80;;;;;;5054473;28;20025;-78
2023/01/26 13:19:41;;;;;;;10.60;1.95;;;19.50;64.20;;;;;;5054994;28;20029;-78
2023/01/26 13:22:18;;;;;;;11.23;2.28;;;19.70;63.30;;;;;;5053514;28;20032;-78
2023/01/26 13:24:47;;;;;;;9.02;2.50;;;19.90;62.50;;;;;;5054729;28;20427;-77
2023/01/26 13:27:31;;;;;;;10.52;1.80;;;19.90;61.40;;;;;;5054825;28;20033;-78
2023/01/26 13:29:57;;;;;;;9.57;1.80;;;19.50;59.20;;;;;;5052915;28;20058;-78
2023/01/26 13:32:23;;;;;;;11.73;1.67;;;19.00;59.40;;;;;;5053477;28;20025;-78
2023/01/26 13:34:58;;;;;;;8.73;2.28;;;18.50;59.90;;;;;;5054051;28;20401;-78